createdAt,value
2018-11-10T00:00:45.061Z,67.95
2018-11-10T00:03:14.094Z,68.04
2018-11-10T00:05:43.282Z,68.31
2018-11-10T00:08:12.596Z,68.42
2018-11-10T00:10:41.749Z,67.24
2018-11-10T00:13:10.688Z,67.48
2018-11-10T00:15:39.972Z,67.01
2018-11-10T00:18:09.133Z,67.83
2018-11-10T00:20:38.110Z,68.27
2018-11-10T00:23:07.348Z,68.89
2018-11-10T00:25:36.454Z,67.53
2018-11-10T00:28:05.618Z,67.98
2018-11-10T00:30:34.593Z,67.80
2018-11-10T00:33:03.652Z,68.11
2018-11-10T00:35:32.755Z,68.05
2018-11-10T00:38:01.927Z,68.45
2018-11-10T00:40:31.033Z,68.84
2018-11-10T00:43:00.178Z,68.74
2018-11-10T00:45:29.445Z,68.80
2018-11-10T00:47:58.246Z,69.43
2018-11-10T00:50:27.330Z,69.13
2018-11-10T00:52:56.214Z,68.81
2018-11-10T00:55:25.361Z,68.67
2018-11-10T00:57:54.392Z,68.95
2018-11-10T01:00:23.186Z,68.13
2018-11-10T01:02:52.109Z,67.88
2018-11-10T01:05:21.066Z,67.70
2018-11-10T01:07:50.211Z,68.87
2018-11-10T01:10:19.394Z,67.47
2018-11-10T01:12:48.635Z,68.04
2018-11-10T01:15:17.839Z,68.18
2018-11-10T01:17:46.981Z,68.59
2018-11-10T01:20:16.081Z,68.15
2018-11-10T01:22:44.977Z,67.93
2018-11-10T01:25:14.272Z,68.45
2018-11-10T01:27:43.382Z,68.00
2018-11-10T01:30:15.326Z,68.94
2018-11-10T01:32:45.088Z,68.35
2018-11-10T01:35:14.641Z,68.62
2018-11-10T01:37:43.737Z,68.94
2018-11-10T01:40:14.058Z,68.99
2018-11-10T01:42:43.779Z,69.35
2018-11-10T01:45:15.626Z,69.26
2018-11-10T01:47:45.241Z,69.09
2018-11-10T01:50:14.173Z,68.53
2018-11-10T01:52:43.422Z,68.45
2018-11-10T01:55:12.629Z,69.19
2018-11-10T01:57:42.128Z,69.26
2018-11-10T02:00:15.876Z,68.11
2018-11-10T02:02:45.369Z,68.03
2018-11-10T02:05:14.692Z,68.46
2018-11-10T02:07:43.573Z,68.42
2018-11-10T02:10:13.136Z,68.08
2018-11-10T02:12:42.565Z,66.83
2018-11-10T02:15:14.006Z,66.41
2018-11-10T02:17:43.185Z,67.08
2018-11-10T02:20:13.349Z,66.58
2018-11-10T02:22:42.910Z,67.50
2018-11-10T02:25:12.613Z,67.77
2018-11-10T02:27:42.169Z,67.37
2018-11-10T02:30:12.126Z,66.52
2018-11-10T02:32:41.410Z,66.39
2018-11-10T02:35:10.487Z,66.57
2018-11-10T02:37:40.062Z,67.50
2018-11-10T02:40:11.452Z,67.49
2018-11-10T02:42:40.315Z,68.04
2018-11-10T02:45:10.941Z,67.72
2018-11-10T02:47:39.768Z,67.36
2018-11-10T02:50:08.870Z,67.66
2018-11-10T02:52:38.109Z,68.30
2018-11-10T02:55:07.791Z,68.08
2018-11-10T02:57:36.770Z,68.12
2018-11-10T03:00:06.287Z,68.30
2018-11-10T03:02:35.435Z,67.84
2018-11-10T03:05:04.579Z,67.81
2018-11-10T03:07:33.778Z,67.48
2018-11-10T03:10:03.126Z,67.63
2018-11-10T03:12:32.373Z,68.95
2018-11-10T03:15:01.526Z,69.30
2018-11-10T03:17:30.850Z,68.65
2018-11-10T03:19:59.965Z,68.38
2018-11-10T03:22:28.957Z,68.17
2018-11-10T03:24:58.049Z,68.72
2018-11-10T03:27:27.196Z,68.75
2018-11-10T03:29:56.246Z,69.25
2018-11-10T03:32:25.437Z,69.23
2018-11-10T03:34:54.625Z,69.28
2018-11-10T03:37:23.798Z,69.24
2018-11-10T03:39:52.933Z,69.46
2018-11-10T03:42:22.126Z,68.75
2018-11-10T03:44:51.289Z,69.44
2018-11-10T03:47:20.427Z,69.71
2018-11-10T03:49:52.228Z,70.03
2018-11-10T03:52:21.685Z,69.63
2018-11-10T03:54:50.575Z,70.24
2018-11-10T03:57:19.711Z,69.91
2018-11-10T03:59:48.805Z,70.84
2018-11-10T04:02:18.002Z,71.11
2018-11-10T04:04:46.917Z,70.62
2018-11-10T04:07:15.910Z,70.68
2018-11-10T04:09:44.953Z,71.23
2018-11-10T04:12:14.095Z,70.62
2018-11-10T04:14:43.149Z,71.27
2018-11-10T04:17:12.383Z,71.55
2018-11-10T04:19:41.414Z,71.73
2018-11-10T04:22:10.470Z,71.56
2018-11-10T04:24:39.805Z,70.91
2018-11-10T04:27:08.858Z,71.86
2018-11-10T04:29:38.102Z,70.19
2018-11-10T04:32:07.198Z,71.06
2018-11-10T04:34:36.335Z,71.77
2018-11-10T04:37:05.586Z,72.60
2018-11-10T04:39:34.682Z,72.39
2018-11-10T04:42:03.465Z,72.08
2018-11-10T04:44:32.721Z,71.81
2018-11-10T04:47:04.610Z,71.47
2018-11-10T04:49:33.702Z,71.74
2018-11-10T04:52:02.918Z,72.02
2018-11-10T04:54:32.183Z,72.71
2018-11-10T04:57:01.490Z,72.72
2018-11-10T04:59:30.753Z,72.57
2018-11-10T05:01:59.917Z,73.02
2018-11-10T05:04:28.975Z,72.74
2018-11-10T05:06:57.954Z,72.85
2018-11-10T05:09:27.060Z,73.32
2018-11-10T05:11:56.490Z,72.73
2018-11-10T05:14:26.162Z,73.20
2018-11-10T05:16:55.253Z,73.33
2018-11-10T05:19:24.158Z,74.21
2018-11-10T05:21:52.997Z,73.37
2018-11-10T05:24:22.216Z,73.50
2018-11-10T05:26:51.531Z,73.51
2018-11-10T05:29:20.649Z,73.31
2018-11-10T05:31:49.578Z,73.43
2018-11-10T05:34:18.862Z,73.78
2018-11-10T05:36:48.058Z,73.29
2018-11-10T05:39:16.893Z,72.93
2018-11-10T05:41:46.133Z,73.32
2018-11-10T05:44:29.878Z,73.19
2018-11-10T05:46:58.696Z,73.42
2018-11-10T05:49:27.793Z,73.50
2018-11-10T05:51:56.814Z,73.10
2018-11-10T05:54:25.946Z,73.26
2018-11-10T05:56:55.102Z,73.75
2018-11-10T05:59:24.571Z,74.07
2018-11-10T06:01:53.606Z,73.86
2018-11-10T06:04:23.006Z,72.59
2018-11-10T06:06:52.294Z,71.72
2018-11-10T06:09:21.372Z,72.85
2018-11-10T06:11:50.250Z,72.30
2018-11-10T06:14:19.412Z,71.55
2018-11-10T06:16:48.577Z,71.03
2018-11-10T06:19:17.412Z,70.74
2018-11-10T06:21:46.714Z,69.98
2018-11-10T06:24:15.526Z,69.83
2018-11-10T06:26:44.505Z,69.15
2018-11-10T06:29:13.721Z,69.25
2018-11-10T06:31:42.959Z,68.89
2018-11-10T06:34:12.133Z,69.20
2018-11-10T06:36:41.332Z,68.34
2018-11-10T06:39:11.282Z,67.47
2018-11-10T06:41:40.001Z,66.26
2018-11-10T06:44:09.155Z,65.49
2018-11-10T06:46:38.281Z,65.49
2018-11-10T06:49:07.894Z,65.11
2018-11-10T06:51:37.230Z,64.33
2018-11-10T06:54:06.626Z,64.34
2018-11-10T06:56:35.622Z,64.88
2018-11-10T06:59:04.798Z,65.58
2018-11-10T07:01:33.654Z,64.22
2018-11-10T07:04:02.585Z,64.42
2018-11-10T07:06:31.813Z,64.30
2018-11-10T07:09:01.259Z,64.62
2018-11-10T07:11:30.504Z,63.90
2018-11-10T07:13:59.845Z,63.86
2018-11-10T07:16:28.987Z,63.04
2018-11-10T07:18:57.856Z,62.26
2018-11-10T07:21:26.841Z,62.50
2018-11-10T07:23:55.954Z,61.96
2018-11-10T07:26:24.867Z,62.24
2018-11-10T07:28:53.858Z,62.69
2018-11-10T07:31:23.197Z,62.18
2018-11-10T07:33:52.598Z,62.49
2018-11-10T07:36:21.529Z,62.18
2018-11-10T07:38:50.606Z,62.17
2018-11-10T07:41:19.562Z,62.38
2018-11-10T07:43:48.726Z,61.24
2018-11-10T07:46:17.770Z,61.23
2018-11-10T07:48:47.029Z,61.17
2018-11-10T07:51:16.441Z,60.49
2018-11-10T07:53:45.465Z,60.50
2018-11-10T07:56:14.761Z,59.98
2018-11-10T07:58:43.727Z,59.79
2018-11-10T08:01:12.942Z,59.84
2018-11-10T08:03:42.201Z,59.19
2018-11-10T08:06:11.446Z,59.12
2018-11-10T08:08:40.339Z,58.29
2018-11-10T08:11:09.333Z,58.38
2018-11-10T08:13:38.378Z,57.95
2018-11-10T08:16:07.541Z,57.63
2018-11-10T08:18:36.812Z,57.51
2018-11-10T08:21:05.830Z,56.56
2018-11-10T08:23:35.018Z,56.71
2018-11-10T08:26:04.068Z,56.32
2018-11-10T08:28:33.374Z,54.76
2018-11-10T08:31:02.684Z,53.84
2018-11-10T08:33:31.595Z,53.72
2018-11-10T08:36:00.610Z,53.24
2018-11-10T08:38:29.881Z,51.98
2018-11-10T08:40:58.775Z,50.55
2018-11-10T08:43:27.578Z,50.35
2018-11-10T08:45:56.971Z,49.31
2018-11-10T08:48:26.012Z,49.26
2018-11-10T08:50:54.766Z,48.83
2018-11-10T08:53:23.898Z,47.91
2018-11-10T08:55:53.345Z,47.35
2018-11-10T08:58:22.706Z,47.20
2018-11-10T09:00:51.998Z,46.28
2018-11-10T09:03:21.334Z,46.31
2018-11-10T09:05:50.341Z,46.78
2018-11-10T09:08:19.635Z,45.88
2018-11-10T09:10:48.646Z,44.70
2018-11-10T09:13:17.809Z,44.99
2018-11-10T09:15:46.798Z,44.00
2018-11-10T09:18:15.869Z,44.05
2018-11-10T09:20:45.065Z,43.14
2018-11-10T09:23:14.303Z,42.75
2018-11-10T09:25:43.389Z,43.98
2018-11-10T09:28:12.306Z,42.35
2018-11-10T09:30:41.370Z,43.12
2018-11-10T09:33:10.274Z,42.79
2018-11-10T09:35:39.381Z,42.51
2018-11-10T09:38:08.380Z,42.10
2018-11-10T09:40:37.610Z,41.99
2018-11-10T09:43:06.579Z,41.01
2018-11-10T09:45:35.798Z,41.10
2018-11-10T09:48:04.886Z,40.55
2018-11-10T09:50:34.045Z,39.58
2018-11-10T09:53:03.351Z,39.88
2018-11-10T09:55:32.550Z,39.42
2018-11-10T09:58:01.929Z,38.85
2018-11-10T10:00:31.130Z,37.65
2018-11-10T10:03:00.333Z,36.92
2018-11-10T10:05:30.318Z,35.95
2018-11-10T10:07:59.398Z,35.91
2018-11-10T10:10:28.648Z,36.13
2018-11-10T10:12:57.854Z,36.03
2018-11-10T10:15:26.994Z,35.12
2018-11-10T10:17:56.311Z,35.47
2018-11-10T10:20:25.417Z,34.23
2018-11-10T10:22:56.633Z,32.42
2018-11-10T10:25:25.553Z,32.31
2018-11-10T10:27:54.490Z,31.51
2018-11-10T10:30:25.722Z,30.52
2018-11-10T10:32:54.856Z,29.36
2018-11-10T10:35:23.918Z,30.48
2018-11-10T10:37:53.323Z,29.98
2018-11-10T10:40:22.612Z,30.56
2018-11-10T10:42:51.911Z,31.75
2018-11-10T10:45:22.974Z,32.05
2018-11-10T10:47:52.424Z,31.06
2018-11-10T10:50:22.549Z,30.25
2018-11-10T10:52:51.453Z,29.88
2018-11-10T10:55:20.608Z,31.74
2018-11-10T10:57:50.427Z,31.43
2018-11-10T11:00:24.694Z,31.03
2018-11-10T11:02:59.065Z,29.20
2018-11-10T11:05:33.273Z,27.18
2018-11-10T11:08:02.177Z,26.40
2018-11-10T11:10:31.537Z,25.16
2018-11-10T11:13:00.834Z,24.40
2018-11-10T11:15:29.993Z,25.03
2018-11-10T11:17:59.065Z,23.78
2018-11-10T11:20:28.586Z,23.08
2018-11-10T11:22:57.622Z,22.72
2018-11-10T11:25:27.077Z,21.44
2018-11-10T11:27:56.048Z,21.57
2018-11-10T11:30:25.086Z,19.86
2018-11-10T11:32:54.209Z,20.17
2018-11-10T11:35:23.478Z,19.05
2018-11-10T11:37:52.525Z,18.56
2018-11-10T11:40:21.698Z,17.91
2018-11-10T11:42:50.841Z,17.27
2018-11-10T11:45:20.028Z,17.52
2018-11-10T11:47:49.021Z,17.42
2018-11-10T11:50:18.327Z,18.43
2018-11-10T11:52:47.620Z,17.48
2018-11-10T11:55:16.876Z,18.10
2018-11-10T11:57:46.150Z,19.39
2018-11-10T12:00:16.495Z,19.27
2018-11-10T12:02:46.200Z,18.65
2018-11-10T12:05:16.669Z,17.54
2018-11-10T12:07:46.293Z,17.94
2018-11-10T12:10:15.842Z,18.03
2018-11-10T12:12:44.997Z,17.14
2018-11-10T12:15:15.346Z,16.46
2018-11-10T12:17:44.227Z,16.95
2018-11-10T12:20:14.338Z,17.20
2018-11-10T12:22:43.342Z,17.08
2018-11-10T12:25:13.534Z,16.76
2018-11-10T12:27:43.297Z,16.72
2018-11-10T12:30:12.711Z,15.91
2018-11-10T12:32:42.163Z,16.53
2018-11-10T12:35:12.774Z,16.64
2018-11-10T12:37:42.115Z,18.31
2018-11-10T12:40:12.551Z,17.84
2018-11-10T12:42:41.822Z,18.48
2018-11-10T12:45:11.797Z,19.74
2018-11-10T12:47:41.316Z,21.84
2018-11-10T12:50:12.176Z,22.48
2018-11-10T12:52:42.138Z,22.43
2018-11-10T12:55:12.526Z,20.83
2018-11-10T12:57:42.257Z,22.13
2018-11-10T13:00:13.000Z,22.02
2018-11-10T13:02:42.098Z,22.85
2018-11-10T13:05:11.833Z,23.56
2018-11-10T13:07:42.018Z,25.07
2018-11-10T13:10:11.639Z,25.90
2018-11-10T13:12:41.383Z,27.72
2018-11-10T13:15:10.986Z,27.82
2018-11-10T13:17:40.483Z,28.75
2018-11-10T13:20:12.718Z,30.62
2018-11-10T13:22:41.995Z,31.14
2018-11-10T13:25:12.169Z,31.68
2018-11-10T13:27:41.294Z,33.44
2018-11-10T13:30:11.711Z,34.02
2018-11-10T13:32:40.556Z,34.23
2018-11-10T13:35:10.387Z,35.16
2018-11-10T13:37:39.506Z,36.26
2018-11-10T13:40:09.379Z,36.98
2018-11-10T13:42:38.549Z,36.80
2018-11-10T13:45:09.454Z,37.40
2018-11-10T13:47:38.434Z,38.40
2018-11-10T13:50:09.330Z,38.73
2018-11-10T13:52:39.423Z,38.90
2018-11-10T13:55:08.078Z,39.60
2018-11-10T13:57:37.361Z,40.83
2018-11-10T14:00:08.850Z,40.94
2018-11-10T14:02:38.139Z,41.25
2018-11-10T14:05:07.062Z,41.46
2018-11-10T14:07:36.386Z,42.69
2018-11-10T14:10:06.023Z,43.60
2018-11-10T14:12:35.318Z,43.62
2018-11-10T14:15:04.528Z,43.36
2018-11-10T14:17:33.763Z,44.05
2018-11-10T14:20:03.153Z,45.17
2018-11-10T14:22:32.314Z,45.50
2018-11-10T14:25:01.299Z,45.80
2018-11-10T14:27:30.078Z,46.26
2018-11-10T14:29:59.121Z,46.56
2018-11-10T14:32:28.050Z,47.68
2018-11-10T14:34:57.989Z,48.84
2018-11-10T14:37:27.202Z,49.38
2018-11-10T14:39:57.111Z,49.57
2018-11-10T14:42:26.095Z,49.94
2018-11-10T14:44:55.398Z,50.65
2018-11-10T14:47:24.353Z,50.88
2018-11-10T14:49:53.445Z,51.26
2018-11-10T14:52:22.746Z,52.18
2018-11-10T14:54:52.210Z,53.11
2018-11-10T14:57:21.455Z,52.69
2018-11-10T14:59:50.482Z,53.47
2018-11-10T15:02:19.658Z,53.33
2018-11-10T15:04:49.057Z,53.66
2018-11-10T15:07:18.111Z,53.95
2018-11-10T15:09:47.438Z,53.71
2018-11-10T15:12:19.081Z,55.05
2018-11-10T15:14:48.178Z,55.31
2018-11-10T15:17:17.489Z,56.01
2018-11-10T15:19:47.309Z,56.68
2018-11-10T15:22:16.397Z,57.34
2018-11-10T15:24:45.423Z,58.04
2018-11-10T15:27:14.286Z,59.02
2018-11-10T15:29:43.517Z,58.81
2018-11-10T15:32:13.187Z,59.35
2018-11-10T15:34:42.437Z,60.05
2018-11-10T15:37:11.683Z,60.86
2018-11-10T15:39:41.521Z,61.21
2018-11-10T15:42:11.576Z,60.77
2018-11-10T15:44:40.831Z,61.26
2018-11-10T15:47:10.223Z,61.93
2018-11-10T15:49:38.957Z,61.56
2018-11-10T15:52:08.714Z,62.26
2018-11-10T15:54:37.993Z,62.61
2018-11-10T15:57:07.410Z,62.90
2018-11-10T15:59:36.740Z,62.54
2018-11-10T16:02:06.558Z,62.63
2018-11-10T16:04:36.317Z,63.57
2018-11-10T16:07:11.539Z,63.82
2018-11-10T16:09:42.561Z,63.81
2018-11-10T16:12:11.578Z,64.10
2018-11-10T16:14:41.492Z,63.79
2018-11-10T16:17:10.521Z,64.25
2018-11-10T16:19:40.482Z,64.69
2018-11-10T16:22:09.805Z,65.19
2018-11-10T16:24:39.099Z,64.80
2018-11-10T16:27:08.926Z,65.61
2018-11-10T16:29:37.819Z,65.14
2018-11-10T16:32:06.985Z,65.45
2018-11-10T16:34:36.133Z,65.26
2018-11-10T16:37:05.812Z,65.43
2018-11-10T16:39:34.666Z,65.64
2018-11-10T16:42:03.670Z,65.91
2018-11-10T16:44:32.733Z,66.08
2018-11-10T16:47:01.965Z,65.86
2018-11-10T16:49:30.927Z,66.10
2018-11-10T16:52:00.163Z,66.95
2018-11-10T16:54:29.280Z,67.05
2018-11-10T16:56:58.504Z,66.84
2018-11-10T16:59:27.601Z,67.48
2018-11-10T17:01:56.718Z,67.37
2018-11-10T17:04:25.547Z,68.10
2018-11-10T17:06:54.756Z,68.19
2018-11-10T17:09:23.758Z,67.87
2018-11-10T17:11:52.723Z,67.95
2018-11-10T17:14:21.941Z,68.62
2018-11-10T17:16:51.705Z,69.16
2018-11-10T17:19:21.853Z,70.20
2018-11-10T17:21:51.271Z,69.61
2018-11-10T17:24:20.428Z,70.35
2018-11-10T17:26:49.642Z,71.28
2018-11-10T17:29:18.682Z,71.07
2018-11-10T17:31:47.626Z,71.16
2018-11-10T17:34:16.727Z,71.05
2018-11-10T17:36:47.486Z,71.44
2018-11-10T17:39:16.837Z,71.34
2018-11-10T17:41:45.991Z,71.57
2018-11-10T17:44:15.355Z,71.71
2018-11-10T17:46:44.590Z,72.30
2018-11-10T17:49:13.870Z,72.38
2018-11-10T17:51:42.890Z,72.09
2018-11-10T17:54:11.902Z,72.44
2018-11-10T17:56:55.823Z,72.93
2018-11-10T17:59:25.553Z,72.97
2018-11-10T18:01:54.695Z,72.97
2018-11-10T18:04:23.706Z,73.03
2018-11-10T18:06:52.848Z,73.03
2018-11-10T18:09:21.881Z,73.35
2018-11-10T18:11:52.480Z,73.56
2018-11-10T18:14:21.849Z,73.21
2018-11-10T18:16:52.222Z,73.83
2018-11-10T18:19:21.621Z,74.28
2018-11-10T18:21:51.387Z,74.63
2018-11-10T18:24:20.401Z,74.08
2018-11-10T18:26:50.177Z,74.17
2018-11-10T18:29:19.047Z,74.26
2018-11-10T18:31:48.258Z,74.82
2018-11-10T18:34:17.149Z,75.01
2018-11-10T18:36:49.064Z,75.02
2018-11-10T18:39:18.237Z,75.09
2018-11-10T18:41:47.410Z,74.54
2018-11-10T18:44:18.129Z,74.66
2018-11-10T18:46:47.313Z,74.81
2018-11-10T18:49:16.177Z,75.11
2018-11-10T18:51:45.400Z,75.40
2018-11-10T18:54:14.801Z,75.08
2018-11-10T18:56:43.702Z,75.19
2018-11-10T18:59:12.641Z,75.28
2018-11-10T19:01:41.951Z,75.72
2018-11-10T19:04:11.149Z,75.57
2018-11-10T19:06:40.257Z,75.34
2018-11-10T19:09:11.917Z,75.54
2018-11-10T19:11:41.180Z,75.24
2018-11-10T19:14:10.317Z,75.67
2018-11-10T19:16:39.386Z,75.32
2018-11-10T19:19:09.709Z,75.30
2018-11-10T19:24:15.178Z,75.09
2018-11-10T19:26:44.043Z,74.97
2018-11-10T19:29:13.159Z,74.48
2018-11-10T19:31:42.194Z,73.89
2018-11-10T19:34:11.259Z,74.37
2018-11-10T19:36:40.341Z,74.73
2018-11-10T19:39:10.889Z,75.08
2018-11-10T19:41:40.104Z,74.80
2018-11-10T19:44:09.548Z,74.18
2018-11-10T19:46:39.197Z,73.92
2018-11-10T19:49:08.785Z,72.97
2018-11-10T19:51:37.942Z,72.21
2018-11-10T19:54:06.587Z,72.52
2018-11-10T19:56:35.829Z,72.82
2018-11-10T19:59:04.857Z,72.90
2018-11-10T20:01:34.073Z,72.93
2018-11-10T20:04:04.222Z,73.02
2018-11-10T20:06:34.218Z,72.88
2018-11-10T20:09:04.814Z,72.70
2018-11-10T20:11:33.866Z,73.46
2018-11-10T20:14:02.985Z,72.71
2018-11-10T20:16:32.240Z,72.77
2018-11-10T20:19:01.479Z,72.36
2018-11-10T20:21:30.542Z,72.10
2018-11-10T20:23:59.777Z,72.46
2018-11-10T20:26:28.705Z,72.39
2018-11-10T20:28:57.934Z,72.39
2018-11-10T20:31:26.922Z,71.75
2018-11-10T20:33:56.087Z,72.45
2018-11-10T20:36:25.014Z,72.81
2018-11-10T20:38:54.150Z,73.16
2018-11-10T20:41:26.377Z,73.32
2018-11-10T20:43:55.667Z,73.61
2018-11-10T20:46:24.770Z,73.13
2018-11-10T20:48:53.883Z,73.99
2018-11-10T20:51:22.901Z,74.05
2018-11-10T20:53:52.142Z,73.82
2018-11-10T20:56:20.898Z,73.69
2018-11-10T20:58:50.165Z,74.46
2018-11-10T21:01:19.194Z,74.22
2018-11-10T21:03:48.430Z,74.30
2018-11-10T21:06:17.622Z,74.44
2018-11-10T21:08:46.679Z,75.32
2018-11-10T21:11:15.823Z,75.26
2018-11-10T21:13:51.144Z,75.26
2018-11-10T21:16:20.185Z,75.46
2018-11-10T21:18:49.337Z,75.59
2018-11-10T21:21:18.641Z,75.60
2018-11-10T21:23:47.842Z,75.55
2018-11-10T21:26:17.075Z,75.32
2018-11-10T21:28:45.923Z,75.77
2018-11-10T21:31:15.029Z,75.63
2018-11-10T21:33:44.076Z,76.15
2018-11-10T21:36:13.157Z,75.86
2018-11-10T21:38:42.162Z,75.69
2018-11-10T21:41:11.248Z,75.67
2018-11-10T21:43:40.078Z,75.54
2018-11-10T21:46:09.066Z,75.46
2018-11-10T21:48:38.353Z,75.25
2018-11-10T21:51:07.470Z,75.82
2018-11-10T21:53:36.523Z,75.86
2018-11-10T21:56:05.786Z,75.75
2018-11-10T21:58:34.622Z,75.88
2018-11-10T22:01:03.618Z,76.02
2018-11-10T22:03:32.642Z,76.24
2018-11-10T22:06:01.890Z,76.38
2018-11-10T22:08:31.030Z,76.70
2018-11-10T22:11:00.191Z,76.36
2018-11-10T22:13:29.501Z,76.60
2018-11-10T22:15:58.669Z,77.23
2018-11-10T22:18:27.805Z,76.90
2018-11-10T22:20:56.918Z,77.03
2018-11-10T22:23:25.726Z,76.69
2018-11-10T22:25:54.875Z,76.08
2018-11-10T22:28:23.998Z,76.84
2018-11-10T22:30:52.915Z,76.58
2018-11-10T22:33:21.762Z,76.49
2018-11-10T22:35:51.026Z,76.15
2018-11-10T22:38:19.835Z,75.91
2018-11-10T22:40:49.162Z,75.82
2018-11-10T22:43:18.149Z,76.12
2018-11-10T22:45:47.357Z,75.76
2018-11-10T22:48:16.585Z,76.58
2018-11-10T22:50:45.390Z,76.51
2018-11-10T22:53:14.399Z,76.23
2018-11-10T22:55:43.704Z,76.34
2018-11-10T22:58:12.763Z,75.96
2018-11-10T23:00:47.055Z,76.36
2018-11-10T23:03:15.974Z,76.32
2018-11-10T23:05:45.053Z,76.95
2018-11-10T23:08:14.112Z,76.77
2018-11-10T23:10:43.066Z,77.49
2018-11-10T23:13:12.190Z,77.33
2018-11-10T23:15:41.357Z,77.19
2018-11-10T23:18:10.510Z,77.22
2018-11-10T23:20:39.679Z,76.68
2018-11-10T23:23:08.831Z,77.46
2018-11-10T23:25:37.677Z,76.76
2018-11-10T23:28:06.867Z,77.27
2018-11-10T23:30:36.074Z,77.44
2018-11-10T23:33:05.653Z,77.46
2018-11-10T23:35:34.850Z,77.59
2018-11-10T23:38:04.141Z,77.32
2018-11-10T23:40:32.982Z,77.33
2018-11-10T23:43:02.249Z,77.72
2018-11-10T23:45:31.540Z,77.55
2018-11-10T23:48:00.397Z,77.33
2018-11-10T23:50:29.522Z,78.05
2018-11-10T23:52:58.322Z,78.18
2018-11-10T23:55:27.264Z,78.42
2018-11-10T23:57:56.359Z,78.22
